Time;durP1;ratioP1;P1;durP2;ratioP2;P2;SDS_P1;SDS_P2;PMS_P1;PMS_P2;Temp;Humidity;BMP_temperature;BMP_pressure;BME280_temperature;BME280_humidity;BME280_pressure;Samples;Min_cycle;Max_cycle;Signal;HPM_P1;HPM_P2
2021/04/03 00:00:25;;;;;;;47.65;29.23;;;14.20;80.40;;;;;;6158903;23;20051;-73
2021/04/03 00:02:53;;;;;;;59.42;31.65;;;14.20;81.00;;;;;;6158806;23;20330;-70
2021/04/03 00:05:20;;;;;;;72.95;43.35;;;14.10;78.80;;;;;;6184972;23;20410;-72
2021/04/03 00:07:46;;;;;;;78.38;44.55;;;14.00;82.60;;;;;;6184911;23;20029;-70
2021/04/03 00:10:21;;;;;;;93.25;48.42;;;13.90;84.20;;;;;;6158667;23;20001;-71
2021/04/03 00:12:47;;;;;;;81.53;46.97;;;13.80;86.00;;;;;;6158872;23;20326;-73
2021/04/03 00:15:14;;;;;;;80.57;44.13;;;13.70;86.10;;;;;;6185230;23;20052;-70
2021/04/03 00:17:40;;;;;;;64.60;38.50;;;13.70;87.20;;;;;;6158939;23;20009;-71
2021/04/03 00:20:09;;;;;;;53.95;31.38;;;13.70;87.50;;;;;;6184828;23;20008;-72
2021/04/03 00:22:35;;;;;;;44.55;26.38;;;13.60;84.90;;;;;;6158721;23;20008;-71
2021/04/03 00:25:01;;;;;;;40.95;24.27;;;13.60;82.30;;;;;;6184621;23;20049;-71
2021/04/03 00:27:27;;;;;;;42.45;23.77;;;13.60;80.70;;;;;;6185203;23;20072;-70
2021/04/03 00:29:53;;;;;;;38.40;23.50;;;13.60;81.40;;;;;;6184954;23;20379;-71
2021/04/03 00:32:19;;;;;;;41.03;23.65;;;13.60;81.30;;;;;;6185269;23;20012;-71
2021/04/03 00:34:45;;;;;;;39.50;25.20;;;13.60;81.50;;;;;;6160324;23;20009;-72
2021/04/03 00:37:11;;;;;;;41.35;23.00;;;13.60;82.50;;;;;;6186942;23;20477;-70
2021/04/03 00:39:37;;;;;;;40.33;22.58;;;13.50;82.00;;;;;;6160628;23;20015;-70
2021/04/03 00:42:18;;;;;;;37.50;22.40;;;13.50;82.20;;;;;;6187105;23;20088;-71
2021/04/03 00:44:46;;;;;;;35.72;22.52;;;13.50;82.80;;;;;;6160379;23;20028;-70
2021/04/03 00:47:14;;;;;;;37.00;21.77;;;13.40;82.80;;;;;;6186817;23;20104;-71
2021/04/03 00:49:42;;;;;;;40.60;22.75;;;13.40;83.40;;;;;;6160330;23;20380;-70
2021/04/03 00:52:10;;;;;;;43.45;25.95;;;13.30;84.80;;;;;;6160009;23;20001;-71
2021/04/03 00:54:36;;;;;;;39.55;23.83;;;13.30;86.40;;;;;;6186851;23;20005;-72
2021/04/03 00:57:05;;;;;;;43.97;25.98;;;13.40;86.00;;;;;;6186771;23;20354;-71
2021/04/03 00:59:31;;;;;;;43.30;26.67;;;13.40;88.30;;;;;;6160295;23;20063;-70
2021/04/03 01:01:57;;;;;;;43.53;26.65;;;13.40;87.90;;;;;;6186685;23;20004;-71
2021/04/03 01:04:23;;;;;;;43.30;26.30;;;13.40;88.50;;;;;;6160332;23;20032;-71
2021/04/03 01:06:49;;;;;;;40.97;26.02;;;13.40;88.40;;;;;;6186676;23;20421;-71
2021/04/03 01:09:15;;;;;;;41.75;25.50;;;13.40;89.10;;;;;;6186555;23;20005;-71
2021/04/03 01:12:13;;;;;;;39.83;24.15;;;13.50;85.60;;;;;;6186514;23;20440;-70
2021/04/03 01:15:16;;;;;;;35.13;22.98;;;13.40;85.70;;;;;;6186273;23;20089;-71
2021/04/03 01:17:44;;;;;;;38.13;22.02;;;13.40;83.80;;;;;;6186659;23;20000;-70
2021/04/03 01:20:45;;;;;;;33.15;21.63;;;13.40;85.40;;;;;;6186500;23;20080;-71
2021/04/03 01:23:48;;;;;;;40.03;22.45;;;13.30;86.50;;;;;;6160745;23;20095;-70
2021/04/03 01:26:20;;;;;;;30.27;20.08;;;13.40;85.10;;;;;;6216522;23;20127;-73
2021/04/03 01:29:12;;;;;;;29.65;19.35;;;13.40;83.20;;;;;;6189778;23;19996;-72
2021/04/03 01:31:39;;;;;;;32.15;19.52;;;13.40;82.90;;;;;;6216445;23;20004;-72
2021/04/03 01:34:08;;;;;;;29.92;19.02;;;13.40;82.80;;;;;;6189827;23;20087;-72
2021/04/03 01:36:37;;;;;;;26.88;18.13;;;13.40;85.50;;;;;;6216077;23;20001;-72
2021/04/03 01:39:16;;;;;;;26.70;17.80;;;13.30;84.50;;;;;;6216452;23;20028;-72
2021/04/03 01:41:46;;;;;;;29.10;19.80;;;13.30;85.90;;;;;;6216428;23;20468;-72
2021/04/03 01:44:17;;;;;;;27.52;19.48;;;13.20;87.30;;;;;;6216410;23;20472;-72
2021/04/03 01:46:45;;;;;;;30.27;20.42;;;13.20;88.10;;;;;;6216473;23;19997;-71
2021/04/03 01:49:15;;;;;;;28.65;19.38;;;13.10;89.40;;;;;;6189555;23;20079;-72
2021/04/03 01:51:45;;;;;;;28.23;18.73;;;13.10;89.70;;;;;;6189628;23;20008;-72
2021/04/03 01:54:12;;;;;;;27.48;19.40;;;13.10;88.10;;;;;;6216333;23;20026;-71
2021/04/03 01:56:41;;;;;;;30.65;20.30;;;13.00;90.00;;;;;;6216205;23;20001;-73
2021/04/03 01:59:08;;;;;;;29.58;18.65;;;12.90;90.10;;;;;;6216196;23;20000;-72
2021/04/03 02:01:42;;;;;;;27.38;18.70;;;12.90;90.50;;;;;;6215870;23;20068;-73
2021/04/03 02:04:11;;;;;;;29.63;18.73;;;12.90;90.80;;;;;;6216149;23;20410;-73
2021/04/03 02:06:40;;;;;;;31.40;19.00;;;12.90;90.20;;;;;;6189422;23;20003;-72
2021/04/03 02:09:10;;;;;;;32.35;18.83;;;12.90;88.40;;;;;;6188959;23;20008;-72
2021/04/03 02:11:38;;;;;;;28.70;18.60;;;12.90;87.50;;;;;;6216125;23;19996;-72
2021/04/03 02:14:05;;;;;;;34.33;19.33;;;12.90;89.40;;;;;;6215997;23;20004;-72
2021/04/03 02:16:36;;;;;;;32.08;18.65;;;12.90;87.70;;;;;;6215685;23;20460;-71
2021/04/03 02:19:08;;;;;;;26.37;18.37;;;12.90;89.40;;;;;;6215832;23;20005;-73
2021/04/03 02:21:39;;;;;;;28.13;18.23;;;12.90;88.30;;;;;;6215987;23;20448;-73
2021/04/03 02:24:06;;;;;;;28.70;19.63;;;12.90;87.90;;;;;;6189044;23;20036;-71
2021/04/03 02:26:34;;;;;;;29.25;18.65;;;12.80;87.40;;;;;;6189374;23;20000;-72
2021/04/03 02:29:00;;;;;;;30.15;18.85;;;12.70;90.20;;;;;;6215862;23;20083;-71
2021/04/03 02:31:28;;;;;;;29.70;18.92;;;12.70;88.50;;;;;;6215953;23;20438;-71
2021/04/03 02:33:54;;;;;;;27.85;17.50;;;12.60;88.60;;;;;;6215915;23;20004;-71
2021/04/03 02:36:20;;;;;;;25.10;17.58;;;12.70;88.50;;;;;;6189154;23;20009;-70
2021/04/03 02:38:50;;;;;;;29.08;18.02;;;12.60;87.70;;;;;;6189160;23;20000;-72
2021/04/03 02:41:30;;;;;;;27.23;17.95;;;12.60;86.90;;;;;;6215855;23;19992;-71
2021/04/03 02:44:19;;;;;;;29.73;18.58;;;12.50;87.30;;;;;;6215537;23;19996;-70
2021/04/03 02:46:54;;;;;;;41.75;27.33;;;12.40;89.50;;;;;;6188846;23;20062;-70
2021/04/03 02:49:24;;;;;;;68.15;41.67;;;;;;;;;;6189077;23;20043;-71
2021/04/03 02:51:57;;;;;;;42.33;25.80;;;12.10;89.00;;;;;;6216059;23;20046;-71
2021/04/03 02:54:25;;;;;;;32.47;20.15;;;12.00;90.20;;;;;;6215812;23;20039;-71
2021/04/03 02:56:52;;;;;;;33.92;21.45;;;12.00;90.20;;;;;;6215485;23;20079;-69
2021/04/03 02:59:24;;;;;;;38.05;22.92;;;11.70;91.30;;;;;;6215751;23;20000;-70
2021/04/03 03:01:54;;;;;;;35.85;22.73;;;11.50;94.00;;;;;;6189030;23;20004;-71
2021/04/03 03:04:21;;;;;;;36.85;22.65;;;11.20;95.10;;;;;;6189048;23;20004;-71
2021/04/03 03:06:48;;;;;;;45.08;24.95;;;11.10;96.20;;;;;;6189048;23;20104;-72
2021/04/03 03:09:16;;;;;;;37.70;23.52;;;11.00;96.60;;;;;;6188848;23;20095;-72
2021/04/03 03:11:46;;;;;;;38.50;23.70;;;11.00;96.80;;;;;;6188955;23;20433;-73
2021/04/03 03:14:14;;;;;;;37.03;23.38;;;10.90;97.30;;;;;;6189684;23;20050;-72
2021/04/03 03:16:42;;;;;;;37.17;23.73;;;10.90;97.90;;;;;;6189050;23;20075;-71
2021/04/03 03:19:09;;;;;;;40.28;24.77;;;10.80;98.20;;;;;;6188870;23;20383;-72
2021/04/03 03:24:57;;;;;;;44.33;24.77;;;10.60;99.20;;;;;;6195983;23;20068;-72
2021/04/03 03:27:25;;;;;;;43.15;25.40;;;10.50;99.10;;;;;;6159112;23;20012;-71
2021/04/03 03:29:51;;;;;;;46.50;26.42;;;10.50;99.70;;;;;;6158960;23;20303;-73
2021/04/03 03:32:17;;;;;;;46.78;24.77;;;10.50;99.90;;;;;;6159147;23;20018;-73
2021/04/03 03:34:43;;;;;;;42.28;25.25;;;10.60;99.60;;;;;;6185450;23;20005;-72
2021/04/03 03:37:10;;;;;;;46.65;26.48;;;10.60;99.80;;;;;;6159001;23;20005;-72
2021/04/03 03:39:36;;;;;;;47.00;24.90;;;10.70;99.70;;;;;;6185366;23;20025;-73
2021/04/03 03:42:03;;;;;;;45.92;25.58;;;10.60;99.80;;;;;;6185418;23;20004;-74
2021/04/03 03:44:29;;;;;;;50.33;27.80;;;10.60;99.90;;;;;;6158972;23;20422;-73
2021/04/03 03:46:55;;;;;;;49.47;27.23;;;10.40;99.90;;;;;;6185384;23;20437;-73
2021/04/03 03:49:21;;;;;;;49.45;27.75;;;10.40;99.90;;;;;;6158838;23;20040;-73
2021/04/03 03:51:47;;;;;;;53.78;30.65;;;10.40;99.90;;;;;;6185445;23;20001;-74
2021/04/03 03:54:14;;;;;;;44.38;26.33;;;10.40;99.90;;;;;;6185469;23;19993;-74
2021/04/03 03:56:39;;;;;;;50.25;26.52;;;10.40;99.90;;;;;;6185344;23;19993;-73
2021/04/03 03:59:05;;;;;;;49.63;27.08;;;10.30;99.90;;;;;;6185357;23;20008;-73
2021/04/03 04:01:32;;;;;;;53.80;28.60;;;;;;;;;;6185338;23;20005;-73
2021/04/03 04:03:57;;;;;;;48.33;28.40;;;10.20;99.90;;;;;;6185409;23;19994;-71
2021/04/03 04:06:23;;;;;;;52.90;28.08;;;10.10;99.90;;;;;;6185300;23;20052;-73
2021/04/03 04:08:50;;;;;;;48.30;27.52;;;10.10;99.90;;;;;;6186229;23;20001;-73
2021/04/03 04:11:16;;;;;;;50.00;29.33;;;10.10;99.90;;;;;;6160688;23;20027;-72
2021/04/03 04:13:42;;;;;;;46.97;27.27;;;10.20;99.90;;;;;;6160807;23;20013;-73
2021/04/03 04:16:08;;;;;;;54.35;30.65;;;10.10;99.90;;;;;;6160671;23;20427;-73
2021/04/03 04:18:33;;;;;;;55.75;29.75;;;10.10;99.90;;;;;;6187075;23;20029;-73
2021/04/03 04:21:00;;;;;;;51.42;28.77;;;10.10;99.90;;;;;;6160638;23;20060;-73
2021/04/03 04:23:26;;;;;;;49.53;27.77;;;10.00;99.90;;;;;;6186806;23;20077;-73
2021/04/03 04:25:52;;;;;;;49.90;28.23;;;10.00;99.90;;;;;;6187123;23;19997;-73
2021/04/03 04:28:18;;;;;;;56.60;29.30;;;9.90;99.90;;;;;;6160624;23;20013;-73
2021/04/03 04:30:43;;;;;;;47.90;26.67;;;10.00;99.90;;;;;;6160436;23;20032;-73
2021/04/03 04:33:09;;;;;;;45.72;24.58;;;9.90;99.90;;;;;;6160465;23;20002;-73
2021/04/03 04:35:35;;;;;;;44.28;24.00;;;9.90;99.90;;;;;;6160614;23;20028;-73
2021/04/03 04:38:01;;;;;;;46.30;25.35;;;9.90;99.90;;;;;;6186943;23;20314;-73
2021/04/03 04:40:27;;;;;;;43.20;24.42;;;9.90;99.90;;;;;;6186941;23;20005;-73
2021/04/03 04:42:54;;;;;;;44.53;23.85;;;10.00;99.90;;;;;;6160528;23;20079;-73
2021/04/03 04:45:20;;;;;;;42.38;24.02;;;10.00;99.90;;;;;;6160498;23;20051;-73
2021/04/03 04:47:46;;;;;;;46.53;24.33;;;10.00;99.90;;;;;;6186526;23;19994;-73
2021/04/03 04:50:12;;;;;;;42.28;23.20;;;10.00;99.90;;;;;;6186687;23;20058;-73
2021/04/03 04:52:39;;;;;;;46.63;23.95;;;10.00;99.90;;;;;;6186843;23;20414;-72
2021/04/03 04:55:05;;;;;;;42.83;23.40;;;10.00;99.90;;;;;;6186791;23;20032;-73
2021/04/03 04:57:31;;;;;;;41.22;21.98;;;9.90;99.90;;;;;;6186767;23;20180;-73
2021/04/03 04:59:57;;;;;;;43.47;24.23;;;9.90;99.90;;;;;;6159955;23;20471;-73
2021/04/03 05:02:23;;;;;;;39.15;21.48;;;9.90;99.90;;;;;;6160231;23;20005;-73
2021/04/03 05:04:49;;;;;;;38.45;21.77;;;9.90;99.90;;;;;;6160216;23;19997;-73
2021/04/03 05:07:16;;;;;;;33.45;20.85;;;9.90;99.90;;;;;;6160224;23;20088;-72
2021/04/03 05:09:41;;;;;;;38.80;22.08;;;9.90;99.90;;;;;;6186586;23;20001;-72
2021/04/03 05:12:08;;;;;;;33.90;20.73;;;9.80;99.90;;;;;;6186641;23;20004;-72
2021/04/03 05:14:33;;;;;;;35.35;20.40;;;9.90;99.90;;;;;;6186607;23;20008;-73
2021/04/03 05:16:59;;;;;;;39.20;20.63;;;9.90;99.90;;;;;;6160146;23;20001;-74
2021/04/03 05:19:26;;;;;;;36.90;20.98;;;9.90;99.90;;;;;;6159832;23;20080;-73
2021/04/03 05:21:52;;;;;;;34.10;20.20;;;9.90;99.90;;;;;;6186590;23;20111;-73
2021/04/03 05:24:18;;;;;;;34.42;18.65;;;9.90;99.90;;;;;;6186094;23;20017;-73
2021/04/03 05:26:44;;;;;;;33.90;20.77;;;10.00;99.90;;;;;;6160010;23;20005;-72
2021/04/03 05:29:10;;;;;;;37.13;19.38;;;10.00;99.90;;;;;;6186372;23;20023;-73
2021/04/03 05:31:36;;;;;;;34.00;19.50;;;9.90;99.90;;;;;;6186109;23;20477;-72
2021/04/03 05:34:02;;;;;;;36.38;20.55;;;9.90;99.90;;;;;;6186416;23;20020;-72
2021/04/03 05:36:28;;;;;;;34.10;20.88;;;9.90;99.90;;;;;;6159897;23;20002;-72
2021/04/03 05:38:53;;;;;;;33.95;21.38;;;9.80;99.90;;;;;;6186246;23;20008;-72
2021/04/03 05:41:19;;;;;;;34.00;20.65;;;9.70;99.90;;;;;;6159822;23;20035;-71
2021/04/03 05:43:47;;;;;;;37.28;21.05;;;9.60;99.90;;;;;;6159836;23;20008;-71
2021/04/03 05:46:18;;;;;;;37.65;22.27;;;9.50;99.90;;;;;;6186360;23;20047;-72
2021/04/03 05:48:45;;;;;;;37.88;22.95;;;9.50;99.90;;;;;;6160619;23;20009;-72
2021/04/03 05:51:14;;;;;;;39.67;22.40;;;9.60;99.90;;;;;;6159743;23;20005;-73
2021/04/03 05:53:40;;;;;;;37.90;22.10;;;9.60;99.90;;;;;;6186192;23;20005;-72
2021/04/03 05:56:06;;;;;;;34.53;20.15;;;9.60;99.90;;;;;;6159881;23;19997;-72
2021/04/03 05:58:32;;;;;;;38.55;21.52;;;9.70;99.90;;;;;;6185667;23;20036;-71
2021/04/03 06:00:58;;;;;;;37.80;22.20;;;9.60;99.90;;;;;;6185734;23;20001;-72
2021/04/03 06:03:25;;;;;;;36.42;21.92;;;9.60;99.90;;;;;;6186083;23;20004;-72
2021/04/03 06:05:52;;;;;;;40.65;23.70;;;9.70;99.90;;;;;;6159681;23;20005;-72
2021/04/03 06:08:18;;;;;;;40.75;25.45;;;9.70;99.90;;;;;;6185732;23;20370;-72
2021/04/03 06:11:14;;;;;;;53.20;33.22;;;9.60;99.90;;;;;;6185883;23;20314;-73
2021/04/03 06:14:00;;;;;;;53.92;32.28;;;9.60;99.90;;;;;;6173511;23;20012;-72
2021/04/03 06:16:30;;;;;;;49.97;30.85;;;9.50;99.90;;;;;;6134507;23;20001;-73
2021/04/03 06:19:06;;;;;;;51.58;27.17;;;9.50;99.90;;;;;;6159587;23;20063;-71
2021/04/03 06:21:32;;;;;;;50.08;29.70;;;9.40;99.90;;;;;;6159599;23;20096;-72
2021/04/03 06:23:58;;;;;;;42.58;24.30;;;9.30;99.90;;;;;;6185688;23;20016;-71
2021/04/03 06:26:24;;;;;;;41.58;23.23;;;9.30;99.90;;;;;;6159458;23;20076;-72
2021/04/03 06:28:50;;;;;;;37.78;23.30;;;9.30;99.90;;;;;;6159588;23;20001;-71
2021/04/03 06:31:17;;;;;;;43.35;24.95;;;9.30;99.90;;;;;;6185465;23;20052;-73
2021/04/03 06:33:44;;;;;;;40.72;23.85;;;9.30;99.90;;;;;;6185745;23;20033;-75
2021/04/03 06:36:18;;;;;;;44.53;24.08;;;9.30;99.90;;;;;;6159468;23;20005;-73
2021/04/03 06:38:48;;;;;;;43.25;25.17;;;9.40;99.90;;;;;;6185862;23;19997;-71
2021/04/03 06:41:23;;;;;;;48.83;27.02;;;9.50;99.90;;;;;;6185746;23;20001;-72
2021/04/03 06:44:22;;;;;;;49.47;26.98;;;9.50;99.90;;;;;;6184114;23;19997;-72
2021/04/03 06:46:49;;;;;;;54.13;28.15;;;9.60;99.90;;;;;;6036717;23;20015;-72
2021/04/03 06:49:15;;;;;;;34.95;21.40;;;9.70;99.90;;;;;;6012816;23;20012;-70
2021/04/03 06:51:42;;;;;;;35.97;22.23;;;9.60;99.90;;;;;;6012602;23;20171;-71
2021/04/03 06:54:09;;;;;;;43.38;24.95;;;9.60;99.90;;;;;;6036628;23;20055;-71
2021/04/03 06:56:37;;;;;;;36.80;20.98;;;9.50;99.90;;;;;;6036791;23;20050;-71
2021/04/03 06:59:11;;;;;;;40.40;22.02;;;9.40;99.90;;;;;;6036667;23;20011;-72
2021/04/03 07:01:50;;;;;;;37.65;21.40;;;9.40;99.90;;;;;;6036629;23;20008;-72
2021/04/03 07:04:25;;;;;;;35.63;21.05;;;9.30;99.90;;;;;;6036706;23;20014;-70
2021/04/03 07:06:51;;;;;;;37.60;21.05;;;9.30;99.90;;;;;;6012717;23;20003;-71
2021/04/03 07:09:20;;;;;;;37.38;21.95;;;9.30;99.90;;;;;;6036544;23;20059;-73
2021/04/03 07:11:48;;;;;;;34.45;20.50;;;9.20;99.90;;;;;;6012814;23;20128;-71
2021/04/03 07:14:19;;;;;;;37.03;21.67;;;9.20;99.90;;;;;;6036743;23;20003;-72
2021/04/03 07:16:47;;;;;;;38.92;23.73;;;9.30;99.90;;;;;;6012817;23;20051;-74
2021/04/03 07:19:16;;;;;;;41.50;23.70;;;9.30;99.90;;;;;;6036602;23;20082;-70
2021/04/03 07:21:43;;;;;;;41.88;23.45;;;9.30;99.90;;;;;;6046246;23;20015;-72
2021/04/03 07:24:19;;;;;;;42.05;24.75;;;9.40;99.90;;;;;;6185281;23;20071;-73
2021/04/03 07:26:49;;;;;;;48.38;26.55;;;9.40;99.90;;;;;;6159022;23;19997;-73
2021/04/03 07:29:40;;;;;;;42.72;25.75;;;9.60;99.90;;;;;;6158896;23;20397;-73
2021/04/03 07:32:06;;;;;;;46.00;25.80;;;9.80;99.90;;;;;;6185467;23;20072;-73
2021/04/03 07:34:42;;;;;;;40.33;23.65;;;10.00;99.90;;;;;;6158934;23;20005;-73
2021/04/03 07:37:11;;;;;;;37.17;22.77;;;10.20;99.90;;;;;;6158794;23;19998;-71
2021/04/03 07:39:39;;;;;;;36.65;23.38;;;10.20;99.90;;;;;;6158961;23;20005;-74
2021/04/03 07:42:06;;;;;;;33.28;21.17;;;10.10;99.90;;;;;;6185759;23;20411;-73
2021/04/03 07:44:35;;;;;;;37.65;23.80;;;10.10;99.90;;;;;;6160923;23;20009;-73
2021/04/03 07:47:27;;;;;;;33.58;20.60;;;10.10;99.90;;;;;;6187063;23;20112;-73
2021/04/03 07:49:54;;;;;;;35.08;21.85;;;10.00;99.90;;;;;;6153819;23;20051;-73
2021/04/03 07:52:52;;;;;;;32.90;20.42;;;10.00;99.90;;;;;;6160800;23;20005;-73
2021/04/03 07:55:42;;;;;;;41.72;24.08;;;9.90;99.90;;;;;;6187176;23;19997;-72
2021/04/03 07:58:20;;;;;;;34.72;21.75;;;10.00;99.90;;;;;;6160942;23;20031;-72
2021/04/03 08:00:46;;;;;;;35.05;22.27;;;10.00;99.90;;;;;;6187184;23;20076;-73
2021/04/03 08:03:12;;;;;;;38.63;22.30;;;9.80;99.90;;;;;;6160730;23;20001;-72
2021/04/03 08:05:39;;;;;;;34.80;20.45;;;9.80;99.90;;;;;;6186568;23;20011;-72
2021/04/03 08:08:09;;;;;;;36.22;21.88;;;9.90;99.90;;;;;;6160644;23;19997;-71
2021/04/03 08:10:35;;;;;;;28.70;18.17;;;10.00;99.90;;;;;;6187061;23;20005;-71
2021/04/03 08:13:02;;;;;;;34.28;22.17;;;10.00;99.90;;;;;;6187079;23;20011;-70
2021/04/03 08:15:28;;;;;;;30.95;19.58;;;10.10;99.90;;;;;;6186925;23;20414;-70
2021/04/03 08:17:54;;;;;;;33.55;20.13;;;10.20;99.90;;;;;;6183116;23;20446;-72
2021/04/03 08:20:22;;;;;;;34.13;19.40;;;10.50;99.90;;;;;;6186179;23;20080;-75
2021/04/03 08:23:05;;;;;;;29.10;18.48;;;10.50;99.90;;;;;;6160517;23;20059;-72
2021/04/03 08:25:32;;;;;;;24.90;16.35;;;10.80;99.90;;;;;;6181254;23;20339;-72
2021/04/03 08:27:59;;;;;;;27.27;17.73;;;10.60;99.50;;;;;;6186192;23;20406;-71
2021/04/03 08:30:32;;;;;;;27.75;17.70;;;10.40;99.90;;;;;;6185302;23;20005;-71
2021/04/03 08:33:07;;;;;;;27.40;17.92;;;10.30;99.90;;;;;;6185504;23;20005;-72
2021/04/03 08:35:34;;;;;;;32.40;18.80;;;10.30;99.90;;;;;;6185292;23;20036;-72
2021/04/03 08:38:26;;;;;;;26.45;16.95;;;10.20;99.90;;;;;;6185570;23;20070;-71
2021/04/03 08:40:53;;;;;;;27.35;18.25;;;10.20;99.90;;;;;;6178395;23;20036;-71
2021/04/03 08:43:27;;;;;;;26.50;16.02;;;10.20;99.90;;;;;;6186889;23;20004;-71
2021/04/03 08:45:54;;;;;;;24.67;15.98;;;10.00;99.40;;;;;;6185293;23;20031;-73
2021/04/03 08:48:20;;;;;;;27.33;16.05;;;10.00;99.90;;;;;;6185118;23;20001;-72
2021/04/03 08:50:48;;;;;;;25.83;17.05;;;9.90;99.90;;;;;;6186416;23;20009;-72
2021/04/03 08:53:14;;;;;;;36.45;21.95;;;10.00;99.90;;;;;;6185003;23;20012;-70
2021/04/03 08:55:40;;;;;;;27.77;16.15;;;10.00;99.90;;;;;;6184836;23;20028;-73
2021/04/03 09:01:30;;;;;;;22.65;15.57;;;9.90;99.90;;;;;;6182227;23;20486;-72
2021/04/03 09:04:03;;;;;;;24.92;17.08;;;9.90;99.90;;;;;;6186447;23;20005;-73
2021/04/03 09:06:59;;;;;;;24.70;16.83;;;9.90;99.90;;;;;;6185202;23;20009;-72
2021/04/03 09:09:28;;;;;;;26.08;16.75;;;9.90;99.90;;;;;;6139806;23;20005;-69
2021/04/03 09:12:00;;;;;;;34.38;20.88;;;9.90;99.90;;;;;;6186515;23;20005;-74
2021/04/03 09:14:35;;;;;;;53.00;27.92;;;10.00;99.90;;;;;;6186737;23;19993;-72
2021/04/03 09:17:17;;;;;;;34.10;21.65;;;10.00;99.90;;;;;;6184882;23;20005;-70
2021/04/03 09:19:43;;;;;;;34.50;19.20;;;10.10;99.90;;;;;;6185171;23;20016;-72
2021/04/03 09:22:13;;;;;;;31.05;17.70;;;10.10;99.90;;;;;;6185023;23;20296;-72
2021/04/03 09:24:41;;;;;;;26.50;17.55;;;10.20;99.90;;;;;;6186334;23;20009;-73
2021/04/03 09:27:11;;;;;;;25.90;15.00;;;10.30;99.30;;;;;;6159965;23;20700;-72
2021/04/03 09:29:37;;;;;;;26.55;16.27;;;10.30;98.20;;;;;;6186545;23;20001;-74
2021/04/03 09:32:05;;;;;;;28.73;16.27;;;10.40;97.60;;;;;;6160209;23;20013;-72
2021/04/03 09:34:33;;;;;;;23.08;13.68;;;10.40;97.10;;;;;;6186404;23;20005;-73
2021/04/03 09:37:21;;;;;;;16.95;11.35;;;10.40;96.50;;;;;;6186524;23;20009;-74
2021/04/03 09:39:54;;;;;;;14.65;9.25;;;10.50;94.00;;;;;;6186252;23;20067;-72
2021/04/03 09:42:29;;;;;;;16.65;11.02;;;10.40;94.10;;;;;;6160094;23;20012;-71
2021/04/03 09:44:59;;;;;;;17.00;11.98;;;10.50;95.20;;;;;;6186503;23;20001;-73
2021/04/03 09:47:26;;;;;;;19.08;13.05;;;10.60;95.20;;;;;;6186222;23;20001;-75
2021/04/03 09:49:52;;;;;;;19.63;12.07;;;10.80;95.30;;;;;;6159784;23;20386;-71
2021/04/03 09:52:19;;;;;;;17.30;9.38;;;10.80;93.40;;;;;;6186173;23;20029;-73
2021/04/03 09:54:47;;;;;;;20.88;11.57;;;10.80;91.50;;;;;;6186168;23;20426;-75
2021/04/03 09:57:14;;;;;;;11.82;8.60;;;10.90;92.30;;;;;;6159673;23;20418;-73
2021/04/03 09:59:41;;;;;;;18.05;11.30;;;11.00;89.90;;;;;;6186039;23;20005;-72
2021/04/03 10:02:07;;;;;;;13.27;8.73;;;11.00;90.00;;;;;;6185981;23;20007;-72
2021/04/03 10:04:33;;;;;;;9.18;7.15;;;10.90;85.30;;;;;;6186473;23;19997;-72
2021/04/03 10:07:00;;;;;;;11.13;7.15;;;10.90;88.00;;;;;;6159844;23;20005;-72
2021/04/03 10:09:26;;;;;;;10.85;7.97;;;10.80;85.70;;;;;;6159754;23;20009;-71
2021/04/03 10:11:53;;;;;;;9.23;6.57;;;10.80;86.30;;;;;;6186205;23;20052;-71
2021/04/03 10:14:23;;;;;;;12.10;7.45;;;10.80;86.30;;;;;;6186167;23;20004;-73
2021/04/03 10:16:49;;;;;;;12.05;8.32;;;10.70;86.90;;;;;;6186227;23;20032;-72
2021/04/03 10:19:15;;;;;;;11.07;7.80;;;10.60;88.20;;;;;;6159813;23;20461;-72
2021/04/03 10:21:42;;;;;;;14.15;8.50;;;10.70;89.40;;;;;;6159383;23;20005;-74
2021/04/03 10:24:09;;;;;;;10.65;7.97;;;10.80;87.10;;;;;;6168371;23;20436;-74
2021/04/03 10:26:35;;;;;;;12.02;7.57;;;10.80;85.80;;;;;;6189443;23;20326;-73
2021/04/03 10:29:01;;;;;;;8.63;6.60;;;10.80;85.30;;;;;;6189142;23;20000;-74
2021/04/03 10:31:27;;;;;;;7.95;6.55;;;10.70;84.20;;;;;;6189123;23;20013;-73
2021/04/03 10:33:53;;;;;;;16.33;9.82;;;10.60;85.60;;;;;;6215707;23;20071;-73
2021/04/03 10:36:25;;;;;;;11.05;7.40;;;10.60;88.50;;;;;;6189362;23;20000;-73
2021/04/03 10:38:50;;;;;;;17.65;10.32;;;10.40;84.60;;;;;;6189342;23;20519;-72
2021/04/03 10:41:16;;;;;;;19.98;10.00;;;10.40;88.70;;;;;;6215735;23;20001;-71
2021/04/03 10:43:43;;;;;;;16.05;7.70;;;10.30;91.20;;;;;;6189309;23;20001;-72
2021/04/03 10:46:08;;;;;;;15.75;9.68;;;10.20;90.50;;;;;;6215766;23;20003;-73
2021/04/03 10:48:35;;;;;;;13.32;8.63;;;10.00;91.20;;;;;;6215824;23;20000;-73
2021/04/03 10:51:02;;;;;;;12.70;7.43;;;10.00;92.10;;;;;;6215353;23;20364;-73
2021/04/03 10:53:28;;;;;;;12.85;7.97;;;9.90;92.40;;;;;;6216127;23;19997;-74
2021/04/03 10:55:54;;;;;;;17.05;10.80;;;9.80;92.80;;;;;;6189335;23;20000;-72
2021/04/03 10:58:20;;;;;;;16.20;9.80;;;9.80;93.70;;;;;;6216022;23;19996;-72
2021/04/03 11:00:46;;;;;;;16.15;9.77;;;9.80;93.40;;;;;;6189280;23;20100;-73
2021/04/03 11:03:12;;;;;;;16.98;9.93;;;9.70;92.90;;;;;;6215854;23;20000;-73
2021/04/03 11:05:38;;;;;;;12.90;9.10;;;9.60;93.30;;;;;;6215731;23;20363;-71
2021/04/03 11:08:04;;;;;;;16.00;10.48;;;9.60;94.00;;;;;;6189289;23;20001;-73
2021/04/03 11:10:30;;;;;;;16.17;10.23;;;9.50;94.10;;;;;;6189122;23;20004;-72
2021/04/03 11:12:56;;;;;;;15.90;9.73;;;9.40;95.40;;;;;;6215769;23;20032;-71
2021/04/03 11:15:22;;;;;;;17.20;11.68;;;9.40;94.80;;;;;;6215735;23;19996;-70
2021/04/03 11:17:51;;;;;;;16.38;10.05;;;9.40;94.00;;;;;;6217677;23;20000;-73
2021/04/03 11:20:17;;;;;;;15.35;8.65;;;9.50;92.20;;;;;;6192345;23;20009;-71
2021/04/03 11:22:43;;;;;;;16.27;8.90;;;9.40;93.90;;;;;;6218476;23;20000;-73
2021/04/03 11:25:09;;;;;;;17.20;10.05;;;9.30;95.40;;;;;;6191409;23;20027;-71
2021/04/03 11:27:35;;;;;;;17.33;9.63;;;9.40;96.30;;;;;;6193462;23;20055;-72
2021/04/03 11:30:13;;;;;;;14.95;10.30;;;9.40;96.70;;;;;;6221665;23;20091;-74
2021/04/03 11:32:50;;;;;;;13.40;9.32;;;9.40;96.70;;;;;;6194926;23;20329;-73
2021/04/03 11:35:20;;;;;;;26.38;15.10;;;9.40;96.70;;;;;;6220743;23;20000;-73
2021/04/03 11:37:47;;;;;;;21.35;12.20;;;9.50;95.90;;;;;;6194239;23;20028;-73
2021/04/03 11:40:14;;;;;;;15.10;9.35;;;9.60;94.60;;;;;;6193354;23;20009;-75
2021/04/03 11:42:40;;;;;;;11.30;8.68;;;9.70;94.60;;;;;;6192503;23;20005;-72
2021/04/03 11:45:09;;;;;;;14.27;8.85;;;9.80;94.10;;;;;;6193600;23;20312;-73
2021/04/03 11:47:35;;;;;;;16.05;9.52;;;9.80;95.10;;;;;;6220493;23;20004;-72
2021/04/03 11:50:02;;;;;;;20.38;10.30;;;9.80;94.90;;;;;;6219498;23;20315;-73
2021/04/03 11:52:32;;;;;;;19.35;10.27;;;9.90;94.40;;;;;;6191851;23;19996;-71
2021/04/03 11:54:58;;;;;;;15.93;9.98;;;9.90;93.30;;;;;;6192643;23;20047;-74
2021/04/03 11:57:24;;;;;;;12.98;8.82;;;9.90;93.90;;;;;;6188691;23;20024;-72
2021/04/03 11:59:50;;;;;;;14.20;8.60;;;9.80;92.00;;;;;;6193024;23;20012;-71
2021/04/03 12:02:15;;;;;;;16.00;9.07;;;9.90;92.30;;;;;;6192319;23;20005;-73
2021/04/03 12:04:41;;;;;;;15.00;7.43;;;9.90;92.40;;;;;;6192808;23;20009;-74
2021/04/03 12:07:07;;;;;;;17.00;11.40;;;10.00;92.10;;;;;;6191346;23;20084;-74
2021/04/03 12:09:33;;;;;;;13.10;9.10;;;10.20;91.80;;;;;;6193034;23;20013;-70
2021/04/03 12:12:00;;;;;;;11.48;8.32;;;10.30;91.30;;;;;;6219959;23;20012;-72
2021/04/03 12:14:26;;;;;;;9.98;7.57;;;10.30;90.10;;;;;;6193209;23;20004;-74
2021/04/03 12:17:47;;;;;;;9.57;6.95;;;10.30;89.90;;;;;;6191935;23;20016;-73
2021/04/03 12:20:16;;;;;;;12.02;6.45;;;10.30;90.50;;;;;;6189142;23;20032;-75
2021/04/03 12:22:43;;;;;;;10.98;7.05;;;10.20;89.40;;;;;;6194700;23;20087;-73
2021/04/03 12:25:09;;;;;;;10.77;7.00;;;10.10;90.70;;;;;;6193885;23;20579;-74
2021/04/03 12:27:35;;;;;;;16.27;9.15;;;10.10;91.00;;;;;;6221829;23;20011;-74
2021/04/03 12:30:02;;;;;;;12.80;8.55;;;10.30;91.60;;;;;;6195462;23;20528;-73
2021/04/03 12:32:29;;;;;;;17.38;10.70;;;10.40;90.00;;;;;;6195140;23;20095;-73
2021/04/03 12:34:55;;;;;;;13.88;7.82;;;;;;;;;;6222088;23;20001;-72
2021/04/03 12:37:21;;;;;;;12.85;8.80;;;10.70;90.00;;;;;;6196104;23;20015;-70
2021/04/03 12:39:47;;;;;;;16.70;10.07;;;10.80;90.40;;;;;;6222601;23;20000;-71
2021/04/03 12:42:13;;;;;;;13.10;8.85;;;11.00;91.00;;;;;;6221842;23;20430;-72
2021/04/03 12:44:39;;;;;;;10.10;7.75;;;11.20;89.30;;;;;;6222788;23;19993;-71
2021/04/03 12:47:05;;;;;;;10.68;7.88;;;11.30;84.20;;;;;;6197512;23;20016;-71
2021/04/03 12:49:32;;;;;;;14.05;9.15;;;11.30;83.60;;;;;;6222881;23;20001;-72